CheckWX is a tool to help pilots better visualize weather data.  It is not intended as a substitute for an official pre-flight weather briefing.

18:41:30 UTC

KRDU METAR
Raleigh-Durham International Airport
Morrisville, North Carolina, USA
Current

51 mins ago

KRDU 261751Z 02009G17KT 330V050 10SM FEW045 FEW080 12/02 A3019 RMK AO2 SLP222 T01220017 10122 20072 50001
Observed
Mar-26 @ 17:51 UTC
Wind
  • 020° at 9 KTS
  • Gusting to 17 KTS
Visibility
10 SM
Flight Rules
VFR
Cloud Levels
  • Few at 4,500' AGL
  • Few at 8,000' AGL
Temperature
12°C / 54°F
Dewpoint
C / 36°F
Humidity
51%
Altimeter
30.19" Hg
Pressure
1022.2 hPa
Previous

2 hours ago

KRDU 261651Z 03010G16KT 10SM FEW034 FEW085 11/01 A3019 RMK AO2 SLP223 T01110011
Observed
Mar-26 @ 16:51 UTC
Wind
  • 030° at 10 KTS
  • Gusting to 16 KTS
Visibility
10 SM
Flight Rules
VFR
Cloud Levels
  • Few at 3,400' AGL
  • Few at 8,500' AGL
Temperature
11°C / 52°F
Dewpoint
C / 34°F
Humidity
50%
Altimeter
30.19" Hg
Pressure
1022.3 hPa
Previous

3 hours ago

KRDU 261551Z 04015G23KT 10SM SCT030 SCT085 10/02 A3019 RMK AO2 SLP222 T01000017
Observed
Mar-26 @ 15:51 UTC
Wind
  • 040° at 15 KTS
  • Gusting to 23 KTS
Visibility
10 SM
Flight Rules
VFR
Cloud Levels
  • Scattered at 3,000' AGL
  • Scattered at 8,500' AGL
Temperature
10°C / 50°F
Dewpoint
C / 36°F
Humidity
58%
Altimeter
30.19" Hg
Pressure
1022.2 hPa